sensor_id;sensor_type;location;lat;lon;timestamp;temperature;humidity
18392;DHT22;9322;50.932;5.318;2022-12-18T00:01:20;-4.40;99.90
18392;DHT22;9322;50.932;5.318;2022-12-18T00:03:47;-4.50;99.90
18392;DHT22;9322;50.932;5.318;2022-12-18T00:06:13;-4.60;99.90
18392;DHT22;9322;50.932;5.318;2022-12-18T00:08:40;-4.70;99.90
18392;DHT22;9322;50.932;5.318;2022-12-18T00:11:07;-4.80;99.90
18392;DHT22;9322;50.932;5.318;2022-12-18T00:13:34;-4.70;99.90
18392;DHT22;9322;50.932;5.318;2022-12-18T00:16:06;-4.60;99.90
18392;DHT22;9322;50.932;5.318;2022-12-18T00:18:32;-4.70;99.90
18392;DHT22;9322;50.932;5.318;2022-12-18T00:21:03;-4.70;99.90
18392;DHT22;9322;50.932;5.318;2022-12-18T00:23:30;-4.80;99.90
18392;DHT22;9322;50.932;5.318;2022-12-18T00:26:07;-4.90;99.90
18392;DHT22;9322;50.932;5.318;2022-12-18T00:28:33;-4.90;99.90
18392;DHT22;9322;50.932;5.318;2022-12-18T00:31:09;-4.90;99.90
18392;DHT22;9322;50.932;5.318;2022-12-18T00:33:35;-4.80;99.90
18392;DHT22;9322;50.932;5.318;2022-12-18T00:36:21;-4.90;99.90
18392;DHT22;9322;50.932;5.318;2022-12-18T00:38:47;-4.90;99.90
18392;DHT22;9322;50.932;5.318;2022-12-18T00:41:15;-4.90;99.90
18392;DHT22;9322;50.932;5.318;2022-12-18T00:44:06;-4.80;99.90
18392;DHT22;9322;50.932;5.318;2022-12-18T00:46:32;-4.90;99.90
18392;DHT22;9322;50.932;5.318;2022-12-18T00:48:58;-5.00;99.90
18392;DHT22;9322;50.932;5.318;2022-12-18T00:51:24;-5.10;99.90
18392;DHT22;9322;50.932;5.318;2022-12-18T00:53:50;-4.90;99.90
18392;DHT22;9322;50.932;5.318;2022-12-18T00:56:16;-4.90;99.90
18392;DHT22;9322;50.932;5.318;2022-12-18T00:58:42;-4.80;99.90
18392;DHT22;9322;50.932;5.318;2022-12-18T01:01:07;-4.80;99.90
18392;DHT22;9322;50.932;5.318;2022-12-18T01:03:33;-4.90;99.90
18392;DHT22;9322;50.932;5.318;2022-12-18T01:05:59;-4.90;99.90
18392;DHT22;9322;50.932;5.318;2022-12-18T01:08:25;-5.00;99.90
18392;DHT22;9322;50.932;5.318;2022-12-18T01:10:50;-4.90;99.90
18392;DHT22;9322;50.932;5.318;2022-12-18T01:13:16;-4.90;99.90
18392;DHT22;9322;50.932;5.318;2022-12-18T01:15:49;-4.70;99.90
18392;DHT22;9322;50.932;5.318;2022-12-18T01:18:14;-4.60;99.90
18392;DHT22;9322;50.932;5.318;2022-12-18T01:20:40;-4.60;99.90
18392;DHT22;9322;50.932;5.318;2022-12-18T01:23:05;-4.60;99.90
18392;DHT22;9322;50.932;5.318;2022-12-18T01:25:31;-4.60;99.90
18392;DHT22;9322;50.932;5.318;2022-12-18T01:27:57;-4.60;99.90
18392;DHT22;9322;50.932;5.318;2022-12-18T01:30:22;-4.60;99.90
18392;DHT22;9322;50.932;5.318;2022-12-18T01:32:48;-4.60;99.90
18392;DHT22;9322;50.932;5.318;2022-12-18T01:35:14;-4.60;99.90
18392;DHT22;9322;50.932;5.318;2022-12-18T01:37:40;-4.60;99.90
18392;DHT22;9322;50.932;5.318;2022-12-18T01:40:06;-4.80;99.90
18392;DHT22;9322;50.932;5.318;2022-12-18T01:42:32;-4.80;99.90
18392;DHT22;9322;50.932;5.318;2022-12-18T01:47:50;-4.80;99.90
18392;DHT22;9322;50.932;5.318;2022-12-18T01:50:21;-4.80;99.90
18392;DHT22;9322;50.932;5.318;2022-12-18T01:52:54;-4.90;99.90
18392;DHT22;9322;50.932;5.318;2022-12-18T01:55:25;-4.80;99.90
18392;DHT22;9322;50.932;5.318;2022-12-18T01:57:57;-4.90;99.90
18392;DHT22;9322;50.932;5.318;2022-12-18T02:00:24;-5.00;99.90
18392;DHT22;9322;50.932;5.318;2022-12-18T02:02:50;-5.00;99.90
18392;DHT22;9322;50.932;5.318;2022-12-18T02:05:26;-5.00;99.90
18392;DHT22;9322;50.932;5.318;2022-12-18T02:08:11;-5.00;99.90
18392;DHT22;9322;50.932;5.318;2022-12-18T02:19:02;-4.70;99.90
18392;DHT22;9322;50.932;5.318;2022-12-18T02:27:00;-4.90;99.90
18392;DHT22;9322;50.932;5.318;2022-12-18T02:29:48;-4.80;99.90
18392;DHT22;9322;50.932;5.318;2022-12-18T02:32:22;-4.70;99.90
18392;DHT22;9322;50.932;5.318;2022-12-18T02:34:51;-4.70;99.90
18392;DHT22;9322;50.932;5.318;2022-12-18T02:37:18;-4.80;99.90
18392;DHT22;9322;50.932;5.318;2022-12-18T02:39:47;-4.90;99.90
18392;DHT22;9322;50.932;5.318;2022-12-18T02:42:13;-4.80;99.90
18392;DHT22;9322;50.932;5.318;2022-12-18T02:44:44;-4.60;99.90
18392;DHT22;9322;50.932;5.318;2022-12-18T02:47:12;-4.70;99.90
18392;DHT22;9322;50.932;5.318;2022-12-18T02:52:23;-4.80;99.90
18392;DHT22;9322;50.932;5.318;2022-12-18T03:00:09;-4.80;99.90
18392;DHT22;9322;50.932;5.318;2022-12-18T03:05:17;-4.90;99.90
18392;DHT22;9322;50.932;5.318;2022-12-18T03:07:55;-5.00;99.90
18392;DHT22;9322;50.932;5.318;2022-12-18T03:10:27;-5.00;99.90
18392;DHT22;9322;50.932;5.318;2022-12-18T03:13:04;-4.90;99.90
18392;DHT22;9322;50.932;5.318;2022-12-18T03:15:45;-4.90;99.90
18392;DHT22;9322;50.932;5.318;2022-12-18T03:20:44;-4.90;99.90
18392;DHT22;9322;50.932;5.318;2022-12-18T03:23:17;-5.00;99.90
18392;DHT22;9322;50.932;5.318;2022-12-18T03:25:44;-5.10;99.90
18392;DHT22;9322;50.932;5.318;2022-12-18T03:28:14;-5.00;99.90
18392;DHT22;9322;50.932;5.318;2022-12-18T03:30:43;-5.20;99.90
18392;DHT22;9322;50.932;5.318;2022-12-18T03:33:20;-5.10;99.90
18392;DHT22;9322;50.932;5.318;2022-12-18T03:35:49;-5.30;99.90
18392;DHT22;9322;50.932;5.318;2022-12-18T03:38:15;-5.30;99.90
18392;DHT22;9322;50.932;5.318;2022-12-18T03:46:18;-5.40;99.90
18392;DHT22;9322;50.932;5.318;2022-12-18T03:48:52;-5.40;99.90
18392;DHT22;9322;50.932;5.318;2022-12-18T03:51:40;-5.50;99.90
18392;DHT22;9322;50.932;5.318;2022-12-18T03:54:10;-5.50;99.90
18392;DHT22;9322;50.932;5.318;2022-12-18T03:56:42;-5.50;99.90
18392;DHT22;9322;50.932;5.318;2022-12-18T03:59:10;-5.60;99.90
18392;DHT22;9322;50.932;5.318;2022-12-18T04:01:41;-5.60;99.90
18392;DHT22;9322;50.932;5.318;2022-12-18T04:04:10;-5.70;99.90
18392;DHT22;9322;50.932;5.318;2022-12-18T04:06:37;-5.70;99.90
18392;DHT22;9322;50.932;5.318;2022-12-18T04:09:04;-5.80;99.90
18392;DHT22;9322;50.932;5.318;2022-12-18T04:11:30;-5.70;99.90
18392;DHT22;9322;50.932;5.318;2022-12-18T04:13:57;-5.80;99.90
18392;DHT22;9322;50.932;5.318;2022-12-18T04:16:24;-6.00;99.90
18392;DHT22;9322;50.932;5.318;2022-12-18T04:18:50;-6.10;99.90
18392;DHT22;9322;50.932;5.318;2022-12-18T04:21:15;-6.10;99.90
18392;DHT22;9322;50.932;5.318;2022-12-18T04:23:41;-6.20;99.90
18392;DHT22;9322;50.932;5.318;2022-12-18T04:26:07;-6.30;99.90
18392;DHT22;9322;50.932;5.318;2022-12-18T04:28:32;-6.50;99.90
18392;DHT22;9322;50.932;5.318;2022-12-18T04:30:58;-6.50;99.90
18392;DHT22;9322;50.932;5.318;2022-12-18T04:33:24;-6.50;99.90
18392;DHT22;9322;50.932;5.318;2022-12-18T04:35:49;-6.50;99.90
18392;DHT22;9322;50.932;5.318;2022-12-18T04:38:15;-6.30;99.90
18392;DHT22;9322;50.932;5.318;2022-12-18T04:40:41;-6.20;99.90
18392;DHT22;9322;50.932;5.318;2022-12-18T04:43:06;-6.10;99.90
18392;DHT22;9322;50.932;5.318;2022-12-18T04:45:32;-6.10;99.90
18392;DHT22;9322;50.932;5.318;2022-12-18T04:47:59;-6.00;99.90
18392;DHT22;9322;50.932;5.318;2022-12-18T04:50:24;-5.90;99.90
18392;DHT22;9322;50.932;5.318;2022-12-18T04:52:51;-5.80;99.90
18392;DHT22;9322;50.932;5.318;2022-12-18T04:55:17;-5.70;99.90
18392;DHT22;9322;50.932;5.318;2022-12-18T04:57:42;-5.70;99.90
18392;DHT22;9322;50.932;5.318;2022-12-18T05:00:08;-5.60;99.90
18392;DHT22;9322;50.932;5.318;2022-12-18T05:02:34;-5.60;99.90
18392;DHT22;9322;50.932;5.318;2022-12-18T05:05:00;-5.70;99.90
18392;DHT22;9322;50.932;5.318;2022-12-18T05:07:26;-5.80;99.90
18392;DHT22;9322;50.932;5.318;2022-12-18T05:09:51;-5.80;99.90
18392;DHT22;9322;50.932;5.318;2022-12-18T05:12:17;-5.80;99.90
18392;DHT22;9322;50.932;5.318;2022-12-18T05:14:42;-5.80;99.90
18392;DHT22;9322;50.932;5.318;2022-12-18T05:17:08;-5.70;99.90
18392;DHT22;9322;50.932;5.318;2022-12-18T05:19:34;-5.70;99.90
18392;DHT22;9322;50.932;5.318;2022-12-18T05:21:59;-5.70;99.90
18392;DHT22;9322;50.932;5.318;2022-12-18T05:24:26;-5.80;99.90
18392;DHT22;9322;50.932;5.318;2022-12-18T05:26:52;-5.80;99.90
18392;DHT22;9322;50.932;5.318;2022-12-18T05:29:18;-5.80;99.90
18392;DHT22;9322;50.932;5.318;2022-12-18T05:31:43;-5.90;99.90
18392;DHT22;9322;50.932;5.318;2022-12-18T05:34:09;-5.90;99.90
18392;DHT22;9322;50.932;5.318;2022-12-18T05:36:35;-5.90;99.90
18392;DHT22;9322;50.932;5.318;2022-12-18T05:39:00;-6.00;99.90
18392;DHT22;9322;50.932;5.318;2022-12-18T05:41:26;-5.90;99.90
18392;DHT22;9322;50.932;5.318;2022-12-18T05:43:52;-5.90;99.90
18392;DHT22;9322;50.932;5.318;2022-12-18T05:46:18;-5.80;99.90
18392;DHT22;9322;50.932;5.318;2022-12-18T05:48:44;-5.90;99.90
18392;DHT22;9322;50.932;5.318;2022-12-18T05:51:12;-6.00;99.90
18392;DHT22;9322;50.932;5.318;2022-12-18T05:53:39;-6.00;99.90
18392;DHT22;9322;50.932;5.318;2022-12-18T05:56:08;-6.00;99.90
18392;DHT22;9322;50.932;5.318;2022-12-18T05:58:34;-6.10;99.90
18392;DHT22;9322;50.932;5.318;2022-12-18T06:01:32;-6.20;99.90
18392;DHT22;9322;50.932;5.318;2022-12-18T06:03:58;-6.20;99.90
18392;DHT22;9322;50.932;5.318;2022-12-18T06:06:25;-6.10;99.90
18392;DHT22;9322;50.932;5.318;2022-12-18T06:08:53;-6.00;99.90
18392;DHT22;9322;50.932;5.318;2022-12-18T06:11:23;-6.00;99.90
18392;DHT22;9322;50.932;5.318;2022-12-18T06:13:53;-6.00;99.90
18392;DHT22;9322;50.932;5.318;2022-12-18T06:16:19;-5.90;99.90
18392;DHT22;9322;50.932;5.318;2022-12-18T06:18:45;-5.80;99.90
18392;DHT22;9322;50.932;5.318;2022-12-18T06:21:11;-5.80;99.90
18392;DHT22;9322;50.932;5.318;2022-12-18T06:23:37;-5.90;99.90
18392;DHT22;9322;50.932;5.318;2022-12-18T06:26:05;-5.90;99.90
18392;DHT22;9322;50.932;5.318;2022-12-18T06:28:31;-5.80;99.90
18392;DHT22;9322;50.932;5.318;2022-12-18T06:30:56;-5.70;99.90
18392;DHT22;9322;50.932;5.318;2022-12-18T06:33:26;-5.70;99.90
18392;DHT22;9322;50.932;5.318;2022-12-18T06:35:52;-5.70;99.90
18392;DHT22;9322;50.932;5.318;2022-12-18T06:38:18;-5.80;99.90
18392;DHT22;9322;50.932;5.318;2022-12-18T06:40:43;-5.70;99.90
18392;DHT22;9322;50.932;5.318;2022-12-18T06:43:09;-5.70;99.90
18392;DHT22;9322;50.932;5.318;2022-12-18T06:45:35;-5.60;99.90
18392;DHT22;9322;50.932;5.318;2022-12-18T06:48:00;-5.60;99.90
18392;DHT22;9322;50.932;5.318;2022-12-18T06:50:26;-5.60;99.90
18392;DHT22;9322;50.932;5.318;2022-12-18T06:52:52;-5.50;99.90
18392;DHT22;9322;50.932;5.318;2022-12-18T06:55:18;-5.60;99.90
18392;DHT22;9322;50.932;5.318;2022-12-18T06:57:44;-5.60;99.90
18392;DHT22;9322;50.932;5.318;2022-12-18T07:00:10;-5.60;99.90
18392;DHT22;9322;50.932;5.318;2022-12-18T07:02:35;-5.60;99.90
18392;DHT22;9322;50.932;5.318;2022-12-18T07:05:01;-5.60;99.90
18392;DHT22;9322;50.932;5.318;2022-12-18T07:07:27;-5.60;99.90
18392;DHT22;9322;50.932;5.318;2022-12-18T07:09:53;-5.60;99.90
18392;DHT22;9322;50.932;5.318;2022-12-18T07:12:18;-5.80;99.90
18392;DHT22;9322;50.932;5.318;2022-12-18T07:14:44;-5.80;99.90
18392;DHT22;9322;50.932;5.318;2022-12-18T07:17:10;-5.80;99.90
18392;DHT22;9322;50.932;5.318;2022-12-18T07:19:35;-5.80;99.90
18392;DHT22;9322;50.932;5.318;2022-12-18T07:22:01;-5.70;99.90
18392;DHT22;9322;50.932;5.318;2022-12-18T07:24:27;-5.70;99.90
18392;DHT22;9322;50.932;5.318;2022-12-18T07:26:53;-5.60;99.90
18392;DHT22;9322;50.932;5.318;2022-12-18T07:29:20;-5.60;99.90
18392;DHT22;9322;50.932;5.318;2022-12-18T07:31:46;-5.60;99.90
18392;DHT22;9322;50.932;5.318;2022-12-18T07:34:13;-5.60;99.90
18392;DHT22;9322;50.932;5.318;2022-12-18T07:36:39;-5.50;99.90
18392;DHT22;9322;50.932;5.318;2022-12-18T07:39:04;-5.50;99.90
18392;DHT22;9322;50.932;5.318;2022-12-18T07:41:30;-5.40;99.90
18392;DHT22;9322;50.932;5.318;2022-12-18T07:43:55;-5.30;99.90
18392;DHT22;9322;50.932;5.318;2022-12-18T07:46:21;-5.30;99.90
18392;DHT22;9322;50.932;5.318;2022-12-18T07:48:47;-5.30;99.90
18392;DHT22;9322;50.932;5.318;2022-12-18T07:51:13;-5.30;99.90
18392;DHT22;9322;50.932;5.318;2022-12-18T07:53:39;-5.20;99.90
18392;DHT22;9322;50.932;5.318;2022-12-18T07:56:10;-5.20;99.90
18392;DHT22;9322;50.932;5.318;2022-12-18T07:58:36;-5.20;99.90
18392;DHT22;9322;50.932;5.318;2022-12-18T08:01:07;-5.20;99.90
18392;DHT22;9322;50.932;5.318;2022-12-18T08:03:33;-5.20;99.90
18392;DHT22;9322;50.932;5.318;2022-12-18T08:06:03;-5.00;99.90
18392;DHT22;9322;50.932;5.318;2022-12-18T08:08:29;-4.90;99.90
18392;DHT22;9322;50.932;5.318;2022-12-18T08:10:56;-4.80;99.90
18392;DHT22;9322;50.932;5.318;2022-12-18T08:13:22;-4.80;99.90
18392;DHT22;9322;50.932;5.318;2022-12-18T08:16:03;-4.70;99.90
18392;DHT22;9322;50.932;5.318;2022-12-18T08:18:29;-4.60;99.90
18392;DHT22;9322;50.932;5.318;2022-12-18T08:20:55;-4.60;99.90
18392;DHT22;9322;50.932;5.318;2022-12-18T08:23:22;-4.40;99.90
18392;DHT22;9322;50.932;5.318;2022-12-18T08:25:47;-4.40;99.90
18392;DHT22;9322;50.932;5.318;2022-12-18T08:28:13;-4.30;99.90
18392;DHT22;9322;50.932;5.318;2022-12-18T08:30:39;-4.20;99.90
18392;DHT22;9322;50.932;5.318;2022-12-18T08:33:04;-4.20;99.90
18392;DHT22;9322;50.932;5.318;2022-12-18T08:35:30;-3.90;99.90
18392;DHT22;9322;50.932;5.318;2022-12-18T08:37:59;-3.70;99.90
18392;DHT22;9322;50.932;5.318;2022-12-18T08:40:25;-3.10;99.90
18392;DHT22;9322;50.932;5.318;2022-12-18T08:42:50;-2.60;99.90
18392;DHT22;9322;50.932;5.318;2022-12-18T08:45:36;-2.30;99.90
18392;DHT22;9322;50.932;5.318;2022-12-18T08:48:02;-1.70;97.00
18392;DHT22;9322;50.932;5.318;2022-12-18T08:50:28;-1.40;95.00
18392;DHT22;9322;50.932;5.318;2022-12-18T08:52:53;-1.00;89.90
18392;DHT22;9322;50.932;5.318;2022-12-18T08:55:19;-1.00;81.20
18392;DHT22;9322;50.932;5.318;2022-12-18T08:57:48;-0.70;83.60
18392;DHT22;9322;50.932;5.318;2022-12-18T09:00:14;-0.50;81.90
18392;DHT22;9322;50.932;5.318;2022-12-18T09:02:40;-0.40;74.90
18392;DHT22;9322;50.932;5.318;2022-12-18T09:05:06;-0.80;70.80
18392;DHT22;9322;50.932;5.318;2022-12-18T09:07:32;-0.80;72.20
18392;DHT22;9322;50.932;5.318;2022-12-18T09:09:57;-0.90;72.10
18392;DHT22;9322;50.932;5.318;2022-12-18T09:12:23;-1.30;70.50
18392;DHT22;9322;50.932;5.318;2022-12-18T09:14:48;-1.70;72.70
18392;DHT22;9322;50.932;5.318;2022-12-18T09:17:14;-1.70;75.20
18392;DHT22;9322;50.932;5.318;2022-12-18T09:19:40;-1.50;74.00
18392;DHT22;9322;50.932;5.318;2022-12-18T09:22:05;-1.30;76.50
18392;DHT22;9322;50.932;5.318;2022-12-18T09:24:31;-1.10;72.40
18392;DHT22;9322;50.932;5.318;2022-12-18T09:26:56;-0.70;70.70
18392;DHT22;9322;50.932;5.318;2022-12-18T09:29:22;-0.70;68.70
18392;DHT22;9322;50.932;5.318;2022-12-18T09:31:48;-0.70;67.30
18392;DHT22;9322;50.932;5.318;2022-12-18T09:34:15;-0.70;68.10
18392;DHT22;9322;50.932;5.318;2022-12-18T09:36:41;-0.70;68.70
18392;DHT22;9322;50.932;5.318;2022-12-18T09:39:07;-0.40;67.10
18392;DHT22;9322;50.932;5.318;2022-12-18T09:41:47;-0.50;66.20
18392;DHT22;9322;50.932;5.318;2022-12-18T09:49:49;-0.10;65.00
18392;DHT22;9322;50.932;5.318;2022-12-18T09:52:21;0.30;64.60
18392;DHT22;9322;50.932;5.318;2022-12-18T09:55:24;0.20;62.90
18392;DHT22;9322;50.932;5.318;2022-12-18T09:58:22;0.20;64.30
18392;DHT22;9322;50.932;5.318;2022-12-18T10:00:45;0.30;64.70
18392;DHT22;9322;50.932;5.318;2022-12-18T10:03:13;0.20;64.10
18392;DHT22;9322;50.932;5.318;2022-12-18T10:06:41;0.10;65.50
18392;DHT22;9322;50.932;5.318;2022-12-18T10:14:32;-0.20;66.70
18392;DHT22;9322;50.932;5.318;2022-12-18T10:17:25;0.20;66.60
18392;DHT22;9322;50.932;5.318;2022-12-18T10:25:45;-0.20;66.40
18392;DHT22;9322;50.932;5.318;2022-12-18T10:28:14;-0.40;66.90
18392;DHT22;9322;50.932;5.318;2022-12-18T10:30:41;-0.50;69.80
18392;DHT22;9322;50.932;5.318;2022-12-18T10:33:16;-0.40;71.00
18392;DHT22;9322;50.932;5.318;2022-12-18T10:35:42;-0.50;71.90
18392;DHT22;9322;50.932;5.318;2022-12-18T10:40:59;-0.60;72.90
18392;DHT22;9322;50.932;5.318;2022-12-18T10:46:16;-0.70;73.60
18392;DHT22;9322;50.932;5.318;2022-12-18T10:48:56;-0.70;74.90
18392;DHT22;9322;50.932;5.318;2022-12-18T10:51:26;-0.70;74.80
18392;DHT22;9322;50.932;5.318;2022-12-18T10:53:59;-0.50;76.60
18392;DHT22;9322;50.932;5.318;2022-12-18T10:56:27;-0.60;74.90
18392;DHT22;9322;50.932;5.318;2022-12-18T10:59:08;-0.80;74.50
18392;DHT22;9322;50.932;5.318;2022-12-18T11:01:52;-0.80;76.80
18392;DHT22;9322;50.932;5.318;2022-12-18T11:04:25;-0.90;77.80
18392;DHT22;9322;50.932;5.318;2022-12-18T11:07:05;-1.00;79.90
18392;DHT22;9322;50.932;5.318;2022-12-18T11:09:36;-0.90;79.10
18392;DHT22;9322;50.932;5.318;2022-12-18T11:12:08;-0.80;78.90
18392;DHT22;9322;50.932;5.318;2022-12-18T11:19:57;-0.80;82.30
18392;DHT22;9322;50.932;5.318;2022-12-18T11:27:22;-0.30;80.40
18392;DHT22;9322;50.932;5.318;2022-12-18T11:29:50;-0.40;79.70
18392;DHT22;9322;50.932;5.318;2022-12-18T11:32:59;-0.10;80.40
18392;DHT22;9322;50.932;5.318;2022-12-18T11:35:44;-0.20;79.50
18392;DHT22;9322;50.932;5.318;2022-12-18T11:40:47;0.20;76.20
18392;DHT22;9322;50.932;5.318;2022-12-18T11:43:18;0.10;77.40
18392;DHT22;9322;50.932;5.318;2022-12-18T11:45:54;0.10;77.70
18392;DHT22;9322;50.932;5.318;2022-12-18T11:48:54;0.20;77.10
18392;DHT22;9322;50.932;5.318;2022-12-18T11:51:33;0.20;75.80
18392;DHT22;9322;50.932;5.318;2022-12-18T11:54:01;0.20;77.00
18392;DHT22;9322;50.932;5.318;2022-12-18T11:56:35;0.20;78.40
18392;DHT22;9322;50.932;5.318;2022-12-18T11:59:24;0.30;77.80
18392;DHT22;9322;50.932;5.318;2022-12-18T12:12:55;0.40;76.20
18392;DHT22;9322;50.932;5.318;2022-12-18T12:15:29;0.60;74.20
18392;DHT22;9322;50.932;5.318;2022-12-18T12:26:12;0.70;74.10
18392;DHT22;9322;50.932;5.318;2022-12-18T12:28:56;0.70;74.60
18392;DHT22;9322;50.932;5.318;2022-12-18T12:31:31;0.70;74.80
18392;DHT22;9322;50.932;5.318;2022-12-18T12:34:12;0.60;75.20
18392;DHT22;9322;50.932;5.318;2022-12-18T12:39:31;0.50;76.60
18392;DHT22;9322;50.932;5.318;2022-12-18T12:41:59;0.60;76.50
18392;DHT22;9322;50.932;5.318;2022-12-18T12:44:47;0.50;77.50
18392;DHT22;9322;50.932;5.318;2022-12-18T12:47:32;0.70;76.80
18392;DHT22;9322;50.932;5.318;2022-12-18T12:50:01;0.70;76.40
18392;DHT22;9322;50.932;5.318;2022-12-18T12:52:32;0.80;77.10
18392;DHT22;9322;50.932;5.318;2022-12-18T12:55:02;0.90;75.80
18392;DHT22;9322;50.932;5.318;2022-12-18T12:57:41;1.00;75.00
18392;DHT22;9322;50.932;5.318;2022-12-18T13:00:17;0.90;75.00
18392;DHT22;9322;50.932;5.318;2022-12-18T13:08:10;1.00;76.70
18392;DHT22;9322;50.932;5.318;2022-12-18T13:10:39;1.10;77.70
18392;DHT22;9322;50.932;5.318;2022-12-18T13:15:39;1.20;75.20
18392;DHT22;9322;50.932;5.318;2022-12-18T13:23:00;1.30;75.20
18392;DHT22;9322;50.932;5.318;2022-12-18T13:25:28;1.40;75.40
18392;DHT22;9322;50.932;5.318;2022-12-18T13:28:02;1.40;75.10
18392;DHT22;9322;50.932;5.318;2022-12-18T13:38:37;1.40;75.10
18392;DHT22;9322;50.932;5.318;2022-12-18T13:43:46;1.40;76.40
18392;DHT22;9322;50.932;5.318;2022-12-18T13:46:50;1.50;75.80
18392;DHT22;9322;50.932;5.318;2022-12-18T13:50:00;1.50;75.20
18392;DHT22;9322;50.932;5.318;2022-12-18T13:52:20;1.40;75.50
18392;DHT22;9322;50.932;5.318;2022-12-18T13:54:51;1.40;75.00
18392;DHT22;9322;50.932;5.318;2022-12-18T13:57:33;1.40;74.60
18392;DHT22;9322;50.932;5.318;2022-12-18T14:02:45;1.20;76.00
18392;DHT22;9322;50.932;5.318;2022-12-18T14:05:25;1.20;77.20
18392;DHT22;9322;50.932;5.318;2022-12-18T14:07:52;1.20;77.30
18392;DHT22;9322;50.932;5.318;2022-12-18T14:10:19;1.20;77.70
18392;DHT22;9322;50.932;5.318;2022-12-18T14:12:48;1.20;78.90
18392;DHT22;9322;50.932;5.318;2022-12-18T14:17:57;1.20;78.40
18392;DHT22;9322;50.932;5.318;2022-12-18T14:20:25;1.20;78.20
18392;DHT22;9322;50.932;5.318;2022-12-18T14:22:51;1.20;79.10
18392;DHT22;9322;50.932;5.318;2022-12-18T14:25:25;1.20;78.90
18392;DHT22;9322;50.932;5.318;2022-12-18T14:27:59;1.40;78.50
18392;DHT22;9322;50.932;5.318;2022-12-18T14:30:32;1.40;78.90
18392;DHT22;9322;50.932;5.318;2022-12-18T14:35:33;1.20;80.20
18392;DHT22;9322;50.932;5.318;2022-12-18T14:40:51;1.20;81.10
18392;DHT22;9322;50.932;5.318;2022-12-18T14:43:17;1.30;81.20
18392;DHT22;9322;50.932;5.318;2022-12-18T14:45:43;1.20;82.30
18392;DHT22;9322;50.932;5.318;2022-12-18T14:48:18;1.20;82.40
18392;DHT22;9322;50.932;5.318;2022-12-18T14:50:45;1.50;81.70
18392;DHT22;9322;50.932;5.318;2022-12-18T14:53:22;1.30;80.40
18392;DHT22;9322;50.932;5.318;2022-12-18T14:55:48;1.30;80.20
18392;DHT22;9322;50.932;5.318;2022-12-18T14:58:15;1.20;80.60
18392;DHT22;9322;50.932;5.318;2022-12-18T15:00:43;1.10;78.40
18392;DHT22;9322;50.932;5.318;2022-12-18T15:03:09;1.20;77.80
18392;DHT22;9322;50.932;5.318;2022-12-18T15:05:35;1.20;76.70
18392;DHT22;9322;50.932;5.318;2022-12-18T15:08:02;1.20;77.20
18392;DHT22;9322;50.932;5.318;2022-12-18T15:10:32;1.20;76.80
18392;DHT22;9322;50.932;5.318;2022-12-18T15:21:07;1.30;76.40
18392;DHT22;9322;50.932;5.318;2022-12-18T15:23:46;1.30;76.30
18392;DHT22;9322;50.932;5.318;2022-12-18T15:26:14;1.30;76.70
18392;DHT22;9322;50.932;5.318;2022-12-18T15:28:48;1.30;77.30
18392;DHT22;9322;50.932;5.318;2022-12-18T15:36:20;1.30;75.60
18392;DHT22;9322;50.932;5.318;2022-12-18T15:38:53;1.30;76.00
18392;DHT22;9322;50.932;5.318;2022-12-18T15:41:21;1.40;76.80
18392;DHT22;9322;50.932;5.318;2022-12-18T15:43:48;1.50;75.80
18392;DHT22;9322;50.932;5.318;2022-12-18T15:46:16;1.50;74.70
18392;DHT22;9322;50.932;5.318;2022-12-18T15:48:47;1.30;75.20
18392;DHT22;9322;50.932;5.318;2022-12-18T15:51:19;1.40;75.20
18392;DHT22;9322;50.932;5.318;2022-12-18T15:53:46;1.30;74.70
18392;DHT22;9322;50.932;5.318;2022-12-18T15:56:13;1.40;74.10
18392;DHT22;9322;50.932;5.318;2022-12-18T15:58:58;1.40;74.30
18392;DHT22;9322;50.932;5.318;2022-12-18T16:01:26;1.40;74.40
18392;DHT22;9322;50.932;5.318;2022-12-18T16:03:52;1.40;72.80
18392;DHT22;9322;50.932;5.318;2022-12-18T16:06:19;1.40;74.50
18392;DHT22;9322;50.932;5.318;2022-12-18T16:08:44;1.40;73.60
18392;DHT22;9322;50.932;5.318;2022-12-18T16:11:22;1.40;73.40
18392;DHT22;9322;50.932;5.318;2022-12-18T16:14:18;1.40;72.20
18392;DHT22;9322;50.932;5.318;2022-12-18T16:16:45;1.50;71.90
18392;DHT22;9322;50.932;5.318;2022-12-18T16:19:10;1.50;72.20
18392;DHT22;9322;50.932;5.318;2022-12-18T16:21:36;1.60;72.10
18392;DHT22;9322;50.932;5.318;2022-12-18T16:24:02;1.50;71.70
18392;DHT22;9322;50.932;5.318;2022-12-18T16:26:27;1.50;71.90
18392;DHT22;9322;50.932;5.318;2022-12-18T16:28:53;1.60;71.50
18392;DHT22;9322;50.932;5.318;2022-12-18T16:31:19;1.50;71.30
18392;DHT22;9322;50.932;5.318;2022-12-18T16:33:46;1.40;71.00
18392;DHT22;9322;50.932;5.318;2022-12-18T16:36:11;1.40;71.80
18392;DHT22;9322;50.932;5.318;2022-12-18T16:38:37;1.50;70.60
18392;DHT22;9322;50.932;5.318;2022-12-18T16:41:17;1.50;69.90
18392;DHT22;9322;50.932;5.318;2022-12-18T16:43:59;1.50;69.50
18392;DHT22;9322;50.932;5.318;2022-12-18T16:46:25;1.70;70.80
18392;DHT22;9322;50.932;5.318;2022-12-18T16:48:51;1.60;70.20
18392;DHT22;9322;50.932;5.318;2022-12-18T16:51:16;1.70;69.20
18392;DHT22;9322;50.932;5.318;2022-12-18T16:53:42;1.50;69.70
18392;DHT22;9322;50.932;5.318;2022-12-18T16:56:08;1.60;69.00
18392;DHT22;9322;50.932;5.318;2022-12-18T16:58:33;1.50;69.50
18392;DHT22;9322;50.932;5.318;2022-12-18T17:00:59;1.60;68.30
18392;DHT22;9322;50.932;5.318;2022-12-18T17:03:25;1.60;68.20
18392;DHT22;9322;50.932;5.318;2022-12-18T17:05:50;1.70;68.20
18392;DHT22;9322;50.932;5.318;2022-12-18T17:08:16;1.70;67.30
18392;DHT22;9322;50.932;5.318;2022-12-18T17:10:42;1.70;66.80
18392;DHT22;9322;50.932;5.318;2022-12-18T17:13:07;1.70;66.90
18392;DHT22;9322;50.932;5.318;2022-12-18T17:15:36;1.60;66.10
18392;DHT22;9322;50.932;5.318;2022-12-18T17:18:02;1.80;67.40
18392;DHT22;9322;50.932;5.318;2022-12-18T17:20:29;1.80;66.00
18392;DHT22;9322;50.932;5.318;2022-12-18T17:22:55;1.80;67.40
18392;DHT22;9322;50.932;5.318;2022-12-18T17:25:23;2.00;66.50
18392;DHT22;9322;50.932;5.318;2022-12-18T17:27:50;1.80;65.60
18392;DHT22;9322;50.932;5.318;2022-12-18T17:30:15;2.00;65.40
18392;DHT22;9322;50.932;5.318;2022-12-18T17:32:41;2.00;64.90
18392;DHT22;9322;50.932;5.318;2022-12-18T17:35:07;2.00;64.00
18392;DHT22;9322;50.932;5.318;2022-12-18T17:37:33;1.90;65.00
18392;DHT22;9322;50.932;5.318;2022-12-18T17:39:58;2.00;64.10
18392;DHT22;9322;50.932;5.318;2022-12-18T17:42:24;2.00;63.50
18392;DHT22;9322;50.932;5.318;2022-12-18T17:44:50;2.00;64.10
18392;DHT22;9322;50.932;5.318;2022-12-18T17:47:17;2.10;63.40
18392;DHT22;9322;50.932;5.318;2022-12-18T17:49:42;2.10;63.50
18392;DHT22;9322;50.932;5.318;2022-12-18T17:52:08;2.20;62.90
18392;DHT22;9322;50.932;5.318;2022-12-18T17:54:34;2.30;62.70
18392;DHT22;9322;50.932;5.318;2022-12-18T17:57:04;2.10;63.10
18392;DHT22;9322;50.932;5.318;2022-12-18T17:59:30;2.20;62.70
18392;DHT22;9322;50.932;5.318;2022-12-18T18:01:55;2.20;62.40
18392;DHT22;9322;50.932;5.318;2022-12-18T18:04:21;2.20;62.10
18392;DHT22;9322;50.932;5.318;2022-12-18T18:06:47;2.20;63.20
18392;DHT22;9322;50.932;5.318;2022-12-18T18:09:12;2.20;62.40
18392;DHT22;9322;50.932;5.318;2022-12-18T18:11:38;2.20;61.70
18392;DHT22;9322;50.932;5.318;2022-12-18T18:14:22;2.30;61.60
18392;DHT22;9322;50.932;5.318;2022-12-18T18:16:50;2.40;61.70
18392;DHT22;9322;50.932;5.318;2022-12-18T18:19:18;2.40;62.30
18392;DHT22;9322;50.932;5.318;2022-12-18T18:21:46;2.30;62.20
18392;DHT22;9322;50.932;5.318;2022-12-18T18:24:13;2.40;62.50
18392;DHT22;9322;50.932;5.318;2022-12-18T18:26:40;2.40;62.40